Time;durP1;ratioP1;P1;durP2;ratioP2;P2;SDS_P1;SDS_P2;PMS_P1;PMS_P2;Temp;Humidity;BMP_temperature;BMP_pressure;BME280_temperature;BME280_humidity;BME280_pressure;Samples;Min_cycle;Max_cycle;Signal;HPM_P1;HPM_P2
2022/04/23 00:02:22;;;;;;;0.60;0.20;;;11.40;99.90;;;;;;5054000;28;20534;-79
2022/04/23 00:04:50;;;;;;;1.13;0.77;;;11.40;1.00;;;;;;5052179;28;20493;-80
2022/04/23 00:07:19;;;;;;;0.80;0.73;;;11.30;1.00;;;;;;5052332;28;20427;-79
2022/04/23 00:09:47;;;;;;;1.10;0.70;;;11.30;1.00;;;;;;5042290;28;20522;-82
2022/04/23 00:12:15;;;;;;;5.40;2.10;;;11.20;1.00;;;;;;5044902;28;20503;-80
2022/04/23 00:14:43;;;;;;;3.83;2.20;;;11.20;1.00;;;;;;5051380;28;20439;-80
2022/04/23 00:17:11;;;;;;;7.60;4.17;;;11.10;1.00;;;;;;5043758;28;20466;-80
2022/04/23 00:19:40;;;;;;;1.33;0.67;;;11.00;1.00;;;;;;5042224;28;20550;-80
2022/04/23 00:22:08;;;;;;;0.80;0.47;;;11.00;1.00;;;;;;5041422;28;20471;-81
2022/04/23 00:24:38;;;;;;;0.70;0.40;;;;;;;;;;5042206;28;20463;-82
2022/04/23 00:27:07;;;;;;;1.47;1.07;;;10.90;1.00;;;;;;5040905;28;20450;-81
2022/04/23 00:29:35;;;;;;;1.73;1.37;;;10.90;1.00;;;;;;5039972;28;20745;-81
2022/04/23 00:32:04;;;;;;;4.57;2.20;;;10.80;1.00;;;;;;5041882;28;20475;-81
2022/04/23 00:34:32;;;;;;;0.60;0.30;;;10.80;1.00;;;;;;5050099;28;20448;-80
2022/04/23 00:37:00;;;;;;;0.70;0.50;;;10.80;1.00;;;;;;5054998;28;20542;-81
2022/04/23 00:39:28;;;;;;;3.13;2.10;;;10.80;1.00;;;;;;5052357;28;20479;-79
2022/04/23 00:42:00;;;;;;;0.97;0.50;;;9.90;1.00;;;;;;5045962;28;20480;-81
2022/04/23 00:44:28;;;;;;;0.60;0.10;;;10.80;1.00;;;;;;5045747;28;20546;-81
2022/04/23 00:46:56;;;;;;;0.90;0.40;;;10.70;1.00;;;;;;5044545;28;20463;-80
2022/04/23 00:49:24;;;;;;;1.83;0.83;;;10.80;1.00;;;;;;5042147;28;20454;-80
2022/04/23 00:51:53;;;;;;;0.60;0.30;;;10.70;1.00;;;;;;5056586;28;20448;-79
2022/04/23 00:54:22;;;;;;;0.60;0.10;;;10.70;1.00;;;;;;5057812;28;20490;-80
2022/04/23 00:56:50;;;;;;;1.20;0.77;;;10.70;1.00;;;;;;5049874;28;20438;-81
2022/04/23 00:59:22;;;;;;;1.80;0.90;;;10.70;1.00;;;;;;5044123;28;20479;-81
2022/04/23 01:01:53;;;;;;;3.37;3.07;;;10.70;1.00;;;;;;5042720;28;20502;-80
2022/04/23 01:04:21;;;;;;;0.70;0.30;;;10.70;1.00;;;;;;5041025;28;20448;-81
2022/04/23 01:06:49;;;;;;;0.60;0.40;;;10.70;1.00;;;;;;5041015;28;20457;-81
2022/04/23 01:09:17;;;;;;;0.87;0.50;;;10.60;1.00;;;;;;5041513;28;20431;-81
2022/04/23 01:11:45;;;;;;;2.30;0.53;;;10.60;1.00;;;;;;5050693;28;20487;-79
2022/04/23 01:14:15;;;;;;;3.33;2.90;;;10.60;1.00;;;;;;5057003;28;20446;-79
2022/04/23 01:16:45;;;;;;;0.80;0.37;;;10.50;1.00;;;;;;5049736;28;20451;-80
2022/04/23 01:19:13;;;;;;;1.80;1.70;;;10.50;1.00;;;;;;5041269;28;20989;-81
2022/04/23 01:21:42;;;;;;;1.43;1.03;;;;;;;;;;5044296;28;20463;-80
2022/04/23 01:24:10;;;;;;;1.83;1.60;;;10.60;1.00;;;;;;5039510;28;20546;-81
2022/04/23 01:26:38;;;;;;;1.63;1.33;;;10.60;1.00;;;;;;5037624;28;20462;-80
2022/04/23 01:29:06;;;;;;;1.60;1.43;;;10.60;1.00;;;;;;5039884;28;20458;-81
2022/04/23 01:31:34;;;;;;;0.60;0.27;;;10.60;1.00;;;;;;5039255;28;20540;-80
2022/04/23 01:34:04;;;;;;;6.87;2.23;;;10.50;1.00;;;;;;5040445;28;20448;-79
2022/04/23 01:36:32;;;;;;;1.50;1.30;;;10.50;1.00;;;;;;5039936;28;20435;-82
2022/04/23 01:39:02;;;;;;;3.00;1.80;;;;;;;;;;5038546;28;20481;-79
2022/04/23 01:41:29;;;;;;;0.93;0.93;;;10.40;1.00;;;;;;5039317;28;20459;-82
2022/04/23 01:43:58;;;;;;;3.77;2.43;;;10.40;1.00;;;;;;5039371;28;20442;-80
2022/04/23 01:46:26;;;;;;;3.60;3.30;;;10.40;1.00;;;;;;5039125;28;20950;-80
2022/04/23 01:48:54;;;;;;;1.73;1.17;;;10.30;1.00;;;;;;5051583;28;20503;-81
2022/04/23 01:51:22;;;;;;;2.77;1.50;;;10.20;1.00;;;;;;5045430;28;20558;-81
2022/04/23 01:53:50;;;;;;;2.20;1.70;;;10.10;1.00;;;;;;5040798;28;20821;-82
2022/04/23 01:56:19;;;;;;;3.03;2.67;;;10.00;1.00;;;;;;5037978;28;20436;-81
2022/04/23 01:58:47;;;;;;;1.03;0.40;;;10.00;1.00;;;;;;5037677;28;20436;-82
2022/04/23 02:01:16;;;;;;;1.47;1.27;;;;;;;;;;5042746;28;20597;-82
2022/04/23 02:03:45;;;;;;;4.20;1.43;;;10.00;1.00;;;;;;5047025;28;20470;-83
2022/04/23 02:06:13;;;;;;;0.60;0.20;;;10.00;1.00;;;;;;5041228;28;20486;-81
2022/04/23 02:08:41;;;;;;;1.63;0.70;;;10.00;1.00;;;;;;5045252;28;20479;-81
2022/04/23 02:11:09;;;;;;;2.53;2.33;;;10.00;1.00;;;;;;5040728;28;20544;-82
2022/04/23 02:13:38;;;;;;;0.60;0.10;;;10.00;1.00;;;;;;5040964;28;20474;-80
2022/04/23 02:16:06;;;;;;;1.17;1.03;;;10.00;1.00;;;;;;5039651;28;20436;-79
2022/04/23 02:18:37;;;;;;;2.80;1.13;;;10.00;1.00;;;;;;5041909;28;20447;-80
2022/04/23 02:21:05;;;;;;;0.70;0.53;;;10.00;1.00;;;;;;5052195;28;20510;-81
2022/04/23 02:23:35;;;;;;;0.60;0.30;;;9.90;1.00;;;;;;5052205;28;20443;-81
2022/04/23 02:26:05;;;;;;;0.60;0.47;;;;;;;;;;5051971;28;20546;-79
2022/04/23 02:28:33;;;;;;;0.60;0.20;;;10.00;1.00;;;;;;5051274;28;20482;-81
2022/04/23 02:31:02;;;;;;;0.70;0.20;;;10.00;1.00;;;;;;5051746;28;20477;-80
2022/04/23 02:33:30;;;;;;;0.80;0.40;;;10.00;1.00;;;;;;5051668;28;20474;-80
2022/04/23 02:35:58;;;;;;;2.30;1.60;;;9.90;1.00;;;;;;5046503;28;20518;-80
2022/04/23 02:38:26;;;;;;;1.37;1.27;;;9.90;1.00;;;;;;5042627;28;20446;-82
2022/04/23 02:40:54;;;;;;;1.53;1.43;;;9.90;1.00;;;;;;5043243;28;20506;-81
2022/04/23 02:43:22;;;;;;;0.67;0.30;;;9.90;1.00;;;;;;5041694;28;20468;-80
2022/04/23 02:45:50;;;;;;;5.03;2.10;;;10.00;1.00;;;;;;5043278;28;20918;-81
2022/04/23 02:48:20;;;;;;;1.13;0.60;;;;;;;;;;5043131;28;20447;-80
2022/04/23 02:50:48;;;;;;;2.73;1.73;;;9.80;1.00;;;;;;5044954;28;20435;-79
2022/04/23 02:53:16;;;;;;;2.43;2.27;;;9.90;1.00;;;;;;5042995;28;20449;-80
2022/04/23 02:55:44;;;;;;;5.43;4.60;;;9.80;1.00;;;;;;5041477;28;20443;-80
2022/04/23 02:58:14;;;;;;;1.60;1.50;;;9.80;1.00;;;;;;5041727;28;20485;-81
2022/04/23 03:00:43;;;;;;;4.23;0.83;;;9.70;1.00;;;;;;5042589;28;20482;-81
2022/04/23 03:03:12;;;;;;;1.63;1.53;;;9.80;1.00;;;;;;5047196;28;20471;-79
2022/04/23 03:05:43;;;;;;;0.80;0.73;;;;;;;;;;5055211;28;20443;-79
2022/04/23 03:08:11;;;;;;;3.93;3.63;;;9.80;1.00;;;;;;5050766;28;20439;-81
2022/04/23 03:10:40;;;;;;;0.70;0.20;;;9.80;1.00;;;;;;5042980;28;20439;-81
2022/04/23 03:13:09;;;;;;;6.43;1.13;;;9.80;1.00;;;;;;5041560;28;20467;-81
2022/04/23 03:15:38;;;;;;;0.83;0.83;;;9.80;1.00;;;;;;5042227;28;20509;-79
2022/04/23 03:18:08;;;;;;;0.70;0.40;;;9.90;1.00;;;;;;5042403;28;20539;-80
2022/04/23 03:20:37;;;;;;;0.70;0.33;;;9.90;1.00;;;;;;5041544;28;20831;-81
2022/04/23 03:23:07;;;;;;;1.00;0.33;;;9.80;1.00;;;;;;5048429;28;20458;-79
2022/04/23 03:25:35;;;;;;;0.60;0.40;;;9.80;1.00;;;;;;5055251;28;20459;-79
2022/04/23 03:28:03;;;;;;;3.90;1.63;;;9.80;1.00;;;;;;5050422;28;20467;-81
2022/04/23 03:30:31;;;;;;;2.87;1.97;;;;;;;;;;5041683;28;20474;-82
2022/04/23 03:33:00;;;;;;;5.03;0.93;;;9.70;1.00;;;;;;5043994;28;20852;-82
2022/04/23 03:35:28;;;;;;;1.00;0.90;;;9.70;1.00;;;;;;5045005;28;20485;-81
2022/04/23 03:37:56;;;;;;;6.97;2.00;;;9.70;1.00;;;;;;5049967;28;20534;-81
2022/04/23 03:40:26;;;;;;;0.70;0.30;;;9.70;1.00;;;;;;5051833;28;20512;-79
2022/04/23 03:42:54;;;;;;;0.70;0.30;;;9.70;1.00;;;;;;5053300;28;20470;-80
2022/04/23 03:45:24;;;;;;;1.73;1.03;;;9.70;1.00;;;;;;5048519;28;20471;-81
2022/04/23 03:47:52;;;;;;;0.93;0.50;;;9.70;1.00;;;;;;5044460;28;20524;-81
2022/04/23 03:50:20;;;;;;;0.60;0.20;;;9.70;1.00;;;;;;5051012;28;20465;-79
2022/04/23 03:52:49;;;;;;;0.80;0.50;;;9.70;1.00;;;;;;5054096;28;20474;-81
2022/04/23 03:55:17;;;;;;;2.20;1.07;;;9.70;1.00;;;;;;5052428;28;20465;-81
2022/04/23 03:57:48;;;;;;;1.87;1.77;;;9.70;1.00;;;;;;5044963;28;20900;-79
2022/04/23 04:00:17;;;;;;;1.40;0.60;;;9.70;1.00;;;;;;5045334;28;20529;-80
2022/04/23 04:02:45;;;;;;;0.70;0.43;;;9.70;1.00;;;;;;5046261;28;20478;-79
2022/04/23 04:05:15;;;;;;;5.47;5.07;;;9.70;1.00;;;;;;5043709;28;20953;-80
2022/04/23 04:07:45;;;;;;;0.80;0.60;;;9.70;1.00;;;;;;5053841;28;20494;-80
2022/04/23 04:10:14;;;;;;;2.30;1.07;;;9.70;1.00;;;;;;5056278;28;20526;-81
2022/04/23 04:12:42;;;;;;;0.60;0.10;;;9.70;1.00;;;;;;5055114;28;20482;-79
2022/04/23 04:15:15;;;;;;;1.37;1.27;;;9.70;1.00;;;;;;5055385;28;20461;-78
2022/04/23 04:17:44;;;;;;;0.60;0.10;;;9.60;1.00;;;;;;5048267;28;20447;-80
2022/04/23 04:20:13;;;;;;;0.80;0.63;;;9.70;1.00;;;;;;5046566;28;20479;-79
2022/04/23 04:22:41;;;;;;;0.80;0.40;;;9.60;1.00;;;;;;5046203;28;20478;-80
2022/04/23 04:25:11;;;;;;;2.30;1.23;;;9.60;1.00;;;;;;5057203;28;20441;-81
2022/04/23 04:27:39;;;;;;;1.63;0.93;;;9.60;1.00;;;;;;5028904;28;20519;-82
2022/04/23 04:30:10;;;;;;;1.53;1.40;;;9.60;1.00;;;;;;5025052;28;20509;-81
2022/04/23 04:32:41;;;;;;;2.60;1.27;;;9.60;1.00;;;;;;5036487;28;21055;-80
2022/04/23 04:35:10;;;;;;;1.17;0.57;;;;;;;;;;5043410;28;20442;-81
2022/04/23 04:37:39;;;;;;;6.10;1.57;;;;;;;;;;5043717;28;20451;-80
2022/04/23 04:40:08;;;;;;;1.37;1.23;;;9.60;1.00;;;;;;5042747;28;20439;-80
2022/04/23 04:42:37;;;;;;;1.30;1.20;;;9.60;1.00;;;;;;5046652;28;20487;-81
2022/04/23 04:45:05;;;;;;;0.60;0.30;;;9.60;1.00;;;;;;5046587;28;20457;-82
2022/04/23 04:47:33;;;;;;;0.70;0.60;;;9.60;1.00;;;;;;5045341;28;20447;-80
2022/04/23 04:50:03;;;;;;;2.53;1.40;;;;;;;;;;5045073;28;20475;-81
2022/04/23 04:52:31;;;;;;;0.80;0.63;;;9.60;1.00;;;;;;5045676;28;20468;-80
2022/04/23 04:54:59;;;;;;;4.97;0.80;;;9.70;1.00;;;;;;5044566;28;20439;-79
2022/04/23 04:57:27;;;;;;;0.77;0.37;;;9.70;1.00;;;;;;5044124;28;20443;-82
2022/04/23 04:59:55;;;;;;;1.57;1.13;;;9.70;1.00;;;;;;5045071;28;20471;-81
2022/04/23 05:02:23;;;;;;;0.70;0.20;;;;;;;;;;5045175;28;20858;-80
2022/04/23 05:04:51;;;;;;;1.00;0.73;;;9.80;1.00;;;;;;5046473;28;20458;-80
2022/04/23 05:07:21;;;;;;;1.60;1.50;;;10.00;1.00;;;;;;5052629;28;20530;-79
2022/04/23 05:09:48;;;;;;;0.83;0.60;;;10.00;1.00;;;;;;5057458;28;20447;-79
2022/04/23 05:12:16;;;;;;;1.17;0.93;;;10.10;1.00;;;;;;5056724;28;20467;-80
2022/04/23 05:14:44;;;;;;;0.60;0.20;;;10.10;1.00;;;;;;5048531;28;20461;-81
2022/04/23 05:17:17;;;;;;;0.60;0.20;;;10.20;1.00;;;;;;5043811;28;20451;-80
2022/04/23 05:19:45;;;;;;;0.60;0.30;;;10.20;1.00;;;;;;5044750;28;20462;-81
2022/04/23 05:22:13;;;;;;;0.70;0.37;;;10.40;1.00;;;;;;5043958;28;20475;-81
2022/04/23 05:24:42;;;;;;;0.70;0.40;;;10.40;1.00;;;;;;5042520;28;20457;-81
2022/04/23 05:27:10;;;;;;;0.80;0.73;;;10.40;1.00;;;;;;5041984;28;20530;-81
2022/04/23 05:29:39;;;;;;;0.60;0.20;;;;;;;;;;5041019;28;20551;-83
2022/04/23 05:32:07;;;;;;;1.40;1.30;;;10.50;1.00;;;;;;5046166;28;20525;-81
2022/04/23 05:34:36;;;;;;;0.60;0.10;;;10.60;1.00;;;;;;5040017;28;20467;-80
2022/04/23 05:37:05;;;;;;;1.10;0.70;;;10.70;1.00;;;;;;5040384;28;20463;-81
2022/04/23 05:39:33;;;;;;;1.23;0.87;;;10.60;1.00;;;;;;5040473;28;20946;-80
2022/04/23 05:42:02;;;;;;;4.87;1.57;;;;;;;;;;5040839;28;20490;-80
2022/04/23 05:44:30;;;;;;;0.97;0.63;;;10.70;1.00;;;;;;5044251;28;20882;-80
2022/04/23 05:46:58;;;;;;;4.63;4.30;;;10.70;1.00;;;;;;5040043;28;20471;-82
2022/04/23 05:49:27;;;;;;;0.60;0.40;;;10.80;1.00;;;;;;5046934;28;20467;-78
2022/04/23 05:52:15;;;;;;;1.67;1.40;;;10.80;1.00;;;;;;5050536;28;20455;-81
2022/04/23 05:54:43;;;;;;;3.33;2.57;;;10.80;1.00;;;;;;5053088;28;20436;-80
2022/04/23 05:57:13;;;;;;;0.60;0.20;;;;;;;;;;5057312;28;20424;-78
2022/04/23 05:59:41;;;;;;;1.77;0.80;;;10.80;1.00;;;;;;5055597;28;20457;-78
2022/04/23 06:02:13;;;;;;;1.93;1.80;;;11.00;1.00;;;;;;5051477;28;20487;-79
2022/04/23 06:04:41;;;;;;;5.80;5.17;;;11.10;1.00;;;;;;5046071;28;20505;-80
2022/04/23 06:07:09;;;;;;;1.33;1.23;;;11.10;1.00;;;;;;5044372;28;20443;-82
2022/04/23 06:09:37;;;;;;;0.60;0.10;;;11.30;1.00;;;;;;5043447;28;20448;-78
2022/04/23 06:12:06;;;;;;;0.70;0.33;;;11.50;1.00;;;;;;5042866;28;20471;-81
2022/04/23 06:14:36;;;;;;;1.77;0.73;;;11.60;1.00;;;;;;5031044;28;20533;-81
2022/04/23 06:17:07;;;;;;;0.70;0.40;;;11.70;1.00;;;;;;5022470;28;20479;-81
2022/04/23 06:19:37;;;;;;;0.60;0.10;;;11.70;1.00;;;;;;5023319;28;20463;-81
2022/04/23 06:22:05;;;;;;;9.70;5.13;;;11.80;1.00;;;;;;5022100;28;20491;-81
2022/04/23 06:24:33;;;;;;;1.13;1.03;;;12.00;1.00;;;;;;5032286;28;20461;-78
2022/04/23 06:27:02;;;;;;;0.60;0.30;;;12.00;1.00;;;;;;5034882;28;20496;-80
2022/04/23 06:29:37;;;;;;;0.60;0.20;;;12.20;1.00;;;;;;5026584;28;20495;-82
2022/04/23 06:32:06;;;;;;;0.83;0.83;;;12.30;1.00;;;;;;5038750;28;20558;-80
2022/04/23 06:34:35;;;;;;;0.80;0.80;;;12.30;1.00;;;;;;5041203;28;20471;-79
2022/04/23 06:37:05;;;;;;;0.60;0.10;;;12.40;1.00;;;;;;5038755;28;20448;-81
2022/04/23 06:39:33;;;;;;;1.07;0.97;;;12.40;1.00;;;;;;5038477;28;20550;-81
2022/04/23 06:42:01;;;;;;;0.60;0.20;;;12.60;1.00;;;;;;5039100;28;20499;-81
2022/04/23 06:44:29;;;;;;;0.60;0.10;;;12.70;1.00;;;;;;5038678;28;20550;-81
2022/04/23 06:46:58;;;;;;;0.60;0.10;;;;;;;;;;5041419;28;20462;-80
2022/04/23 06:49:27;;;;;;;1.90;1.80;;;12.90;1.00;;;;;;5041549;28;20446;-81
2022/04/23 06:51:56;;;;;;;0.60;0.10;;;13.20;1.00;;;;;;5039971;28;20483;-81
2022/04/23 06:54:24;;;;;;;3.40;0.50;;;;;;;;;;5038100;28;20451;-81
2022/04/23 06:56:53;;;;;;;0.80;0.60;;;13.40;1.00;;;;;;5038889;28;20455;-81
2022/04/23 06:59:21;;;;;;;0.70;0.67;;;13.40;1.00;;;;;;5039827;28;20456;-81
2022/04/23 07:01:49;;;;;;;0.60;0.10;;;13.40;1.00;;;;;;5039073;28;20496;-81
2022/04/23 07:04:18;;;;;;;0.83;0.60;;;13.40;1.00;;;;;;5048851;28;20503;-79
2022/04/23 07:06:46;;;;;;;0.60;0.10;;;13.40;1.00;;;;;;5051800;28;20945;-80
2022/04/23 07:09:14;;;;;;;2.83;0.60;;;13.40;1.00;;;;;;5052115;28;20482;-80
2022/04/23 07:11:43;;;;;;;0.60;0.20;;;13.40;1.00;;;;;;5041337;28;20568;-79
2022/04/23 07:14:11;;;;;;;0.60;0.10;;;13.40;1.00;;;;;;5042100;28;20927;-80
2022/04/23 07:16:39;;;;;;;0.60;0.10;;;13.50;1.00;;;;;;5041409;28;20923;-80
2022/04/23 07:19:09;;;;;;;0.60;0.20;;;13.70;1.00;;;;;;5040478;28;20444;-79
2022/04/23 07:21:38;;;;;;;0.60;0.10;;;13.90;99.90;;;;;;5050761;28;20524;-81
2022/04/23 07:24:10;;;;;;;0.60;0.10;;;14.00;99.90;;;;;;5047812;28;20477;-78
2022/04/23 07:26:40;;;;;;;0.60;0.20;;;14.10;99.90;;;;;;5038040;28;20452;-77
2022/04/23 07:29:10;;;;;;;0.60;0.10;;;14.20;99.90;;;;;;5037522;28;20799;-77
2022/04/23 07:31:39;;;;;;;0.60;0.20;;;;;;;;;;5038014;28;21022;-77
2022/04/23 07:39:39;;;;;;;0.60;0.10;;;14.10;99.90;;;;;;5015785;28;20455;-76
2022/04/23 07:42:08;;;;;;;0.70;0.40;;;14.30;99.90;;;;;;5015616;28;20470;-75
2022/04/23 07:44:36;;;;;;;1.80;1.70;;;14.30;99.90;;;;;;5016019;28;20465;-79
2022/04/23 07:47:05;;;;;;;0.60;0.10;;;14.40;99.90;;;;;;5027237;28;20457;-78
2022/04/23 07:49:33;;;;;;;0.80;0.57;;;14.50;99.90;;;;;;5036981;28;20474;-78
2022/04/23 07:52:04;;;;;;;0.90;0.43;;;14.70;99.90;;;;;;5027897;28;20461;-78
2022/04/23 07:54:32;;;;;;;0.60;0.10;;;14.80;99.90;;;;;;5043753;28;20542;-78
2022/04/23 07:57:00;;;;;;;0.80;0.40;;;15.00;99.90;;;;;;5050063;28;20432;-79
2022/04/23 07:59:28;;;;;;;0.60;0.40;;;15.10;99.90;;;;;;5049722;28;20431;-78
2022/04/23 08:01:56;;;;;;;1.23;0.43;;;15.20;99.90;;;;;;5043378;28;20497;-79
2022/04/23 08:04:25;;;;;;;0.73;0.50;;;15.20;99.90;;;;;;5037146;28;20815;-77
2022/04/23 08:06:53;;;;;;;0.60;0.10;;;15.20;99.90;;;;;;5036335;28;20456;-79
2022/04/23 08:09:22;;;;;;;0.60;0.10;;;15.20;99.90;;;;;;5040933;28;20442;-76
2022/04/23 08:11:50;;;;;;;0.60;0.10;;;15.30;99.90;;;;;;5040591;28;20565;-77
2022/04/23 08:14:18;;;;;;;0.60;0.10;;;15.40;99.90;;;;;;5034028;28;20463;-78
2022/04/23 08:16:48;;;;;;;0.60;0.10;;;15.40;99.90;;;;;;5037063;28;20486;-78
2022/04/23 08:19:17;;;;;;;0.60;0.20;;;15.40;99.90;;;;;;5036709;28;20439;-72
2022/04/23 08:21:45;;;;;;;0.70;0.30;;;15.50;99.90;;;;;;5038203;28;20468;-78
2022/04/23 08:24:13;;;;;;;0.60;0.10;;;15.50;99.90;;;;;;5040745;28;20477;-76
2022/04/23 08:26:42;;;;;;;0.60;0.10;;;15.50;99.90;;;;;;5048713;28;20462;-76
2022/04/23 08:31:56;;;;;;;0.60;0.20;;;15.70;99.90;;;;;;5053884;28;20467;-77
2022/04/23 08:34:24;;;;;;;0.60;0.10;;;15.70;99.90;;;;;;5047087;28;20455;-75
2022/04/23 08:36:52;;;;;;;0.60;0.30;;;15.80;99.90;;;;;;5053338;28;20444;-80
2022/04/23 08:39:20;;;;;;;0.73;0.53;;;15.90;99.90;;;;;;5044244;28;20472;-78
2022/04/23 08:41:49;;;;;;;0.90;0.77;;;16.00;99.90;;;;;;5050547;28;20545;-79
2022/04/23 08:44:17;;;;;;;10.40;9.43;;;16.10;99.90;;;;;;5044130;28;20484;-79
2022/04/23 08:46:46;;;;;;;0.60;0.10;;;16.10;99.90;;;;;;5038180;28;20440;-80
2022/04/23 08:49:16;;;;;;;0.60;0.10;;;16.10;99.90;;;;;;5041212;28;20535;-77
2022/04/23 08:51:46;;;;;;;0.60;0.10;;;16.10;99.90;;;;;;5053848;28;20443;-78
2022/04/23 08:54:15;;;;;;;1.57;0.60;;;16.10;99.90;;;;;;5049314;28;20436;-79
2022/04/23 08:56:45;;;;;;;0.60;0.10;;;16.10;99.90;;;;;;5050085;28;20443;-78
2022/04/23 08:59:16;;;;;;;2.80;2.67;;;16.00;99.90;;;;;;5050602;28;20452;-77
2022/04/23 09:01:50;;;;;;;0.60;0.13;;;15.90;99.90;;;;;;5053193;28;20496;-78
2022/04/23 09:04:19;;;;;;;0.70;0.47;;;15.90;99.90;;;;;;5048622;28;20542;-79
2022/04/23 09:06:49;;;;;;;0.60;0.10;;;13.60;99.90;;;;;;5043256;28;20532;-78
2022/04/23 09:09:20;;;;;;;0.60;0.20;;;15.90;99.90;;;;;;5049527;28;20447;-78
2022/04/23 09:11:51;;;;;;;0.60;0.10;;;16.20;99.90;;;;;;5032568;28;20494;-78
2022/04/23 09:14:25;;;;;;;0.60;0.10;;;;;;;;;;5048457;28;20454;-77
2022/04/23 09:25:31;;;;;;;0.60;0.10;;;17.10;99.90;;;;;;5036982;28;20538;-79
2022/04/23 09:28:14;;;;;;;0.60;0.20;;;17.20;99.90;;;;;;5037971;28;20453;-79
2022/04/23 09:30:44;;;;;;;0.60;0.10;;;17.20;99.90;;;;;;5031593;28;20459;-78
2022/04/23 09:33:13;;;;;;;0.60;0.10;;;17.20;99.90;;;;;;5037567;28;20471;-79
2022/04/23 09:36:02;;;;;;;0.60;0.20;;;17.20;99.90;;;;;;5039198;28;20481;-77
2022/04/23 09:38:31;;;;;;;0.60;0.10;;;17.30;99.90;;;;;;5036564;28;20453;-78
2022/04/23 09:41:15;;;;;;;0.60;0.20;;;17.30;99.90;;;;;;5039300;28;20541;-78
2022/04/23 09:43:45;;;;;;;0.93;0.83;;;17.30;99.90;;;;;;5036179;28;20472;-74
2022/04/23 09:46:14;;;;;;;0.60;0.10;;;17.20;99.90;;;;;;5032772;28;20450;-76
2022/04/23 09:48:44;;;;;;;0.93;0.63;;;17.40;99.90;;;;;;5033075;28;20453;-77
2022/04/23 09:51:24;;;;;;;0.60;0.10;;;17.50;99.90;;;;;;5034274;28;20505;-74
2022/04/23 09:53:53;;;;;;;0.60;0.10;;;17.50;99.90;;;;;;5046847;28;20442;-74
2022/04/23 09:56:22;;;;;;;0.60;0.10;;;17.60;99.90;;;;;;5043229;28;20450;-79
2022/04/23 09:58:51;;;;;;;0.70;0.40;;;17.60;99.90;;;;;;5040079;28;20478;-78
2022/04/23 10:01:21;;;;;;;1.43;0.83;;;17.50;99.90;;;;;;5037279;28;20461;-78
2022/04/23 10:03:52;;;;;;;0.67;0.30;;;17.50;99.90;;;;;;5040385;28;20477;-77
2022/04/23 10:06:21;;;;;;;0.70;0.47;;;17.30;99.90;;;;;;5036566;28;20450;-78
2022/04/23 10:08:51;;;;;;;0.70;0.40;;;17.30;99.90;;;;;;5038375;28;20445;-79
2022/04/23 10:11:24;;;;;;;0.60;0.10;;;17.40;99.90;;;;;;5037766;28;20471;-80
2022/04/23 10:13:56;;;;;;;0.60;0.10;;;17.30;99.90;;;;;;5038158;28;20439;-79
2022/04/23 10:16:28;;;;;;;0.60;0.20;;;17.30;99.90;;;;;;5038670;28;20528;-78
2022/04/23 10:18:58;;;;;;;1.13;0.63;;;17.40;99.90;;;;;;5028887;28;20497;-78
2022/04/23 10:21:32;;;;;;;0.70;0.30;;;17.50;99.90;;;;;;5030044;28;20534;-78
2022/04/23 10:24:07;;;;;;;0.60;0.10;;;17.40;99.90;;;;;;5039996;28;20492;-80
2022/04/23 10:26:49;;;;;;;1.97;1.80;;;17.30;99.90;;;;;;5039175;28;20451;-79
2022/04/23 10:29:21;;;;;;;0.60;0.20;;;17.30;99.90;;;;;;5039649;28;20457;-79
2022/04/23 10:32:37;;;;;;;0.60;0.10;;;17.20;99.90;;;;;;5042274;28;20482;-79
2022/04/23 10:35:35;;;;;;;0.60;0.20;;;17.20;99.90;;;;;;4979115;28;21062;-80
2022/04/23 10:38:21;;;;;;;1.87;1.77;;;17.20;99.90;;;;;;4979561;28;20434;-78
2022/04/23 10:40:53;;;;;;;0.60;0.20;;;;;;;;;;5032715;28;20526;-79
2022/04/23 10:43:21;;;;;;;0.60;0.20;;;16.90;99.90;;;;;;5041281;28;20485;-78
2022/04/23 10:45:49;;;;;;;0.60;0.10;;;16.90;99.90;;;;;;5040550;28;20481;-79
2022/04/23 10:48:25;;;;;;;1.90;1.80;;;;;;;;;;5039001;28;20461;-79
2022/04/23 10:51:01;;;;;;;0.60;0.20;;;16.90;99.90;;;;;;5037357;28;20508;-79
2022/04/23 10:53:29;;;;;;;0.60;0.10;;;16.90;99.90;;;;;;5040319;28;21007;-79
2022/04/23 10:56:07;;;;;;;0.60;0.20;;;16.90;99.90;;;;;;5039882;28;20430;-80
2022/04/23 10:58:37;;;;;;;1.83;0.67;;;16.80;99.90;;;;;;5039127;28;21012;-79
2022/04/23 11:01:25;;;;;;;0.60;0.20;;;16.80;99.90;;;;;;5036768;28;20480;-80
2022/04/23 11:04:13;;;;;;;0.77;0.63;;;16.80;99.90;;;;;;5035907;28;20440;-78
2022/04/23 11:12:37;;;;;;;1.07;0.97;;;16.80;99.90;;;;;;5037210;28;20561;-77
2022/04/23 11:15:16;;;;;;;0.93;0.93;;;16.80;99.90;;;;;;5036322;28;20447;-76
2022/04/23 11:17:55;;;;;;;0.87;0.60;;;16.90;99.90;;;;;;5033333;28;20487;-79
2022/04/23 11:20:32;;;;;;;0.60;0.20;;;16.80;99.90;;;;;;5035642;28;20443;-77
2022/04/23 11:23:01;;;;;;;18.30;16.40;;;16.70;99.90;;;;;;5035554;28;20485;-77
2022/04/23 11:25:31;;;;;;;0.60;0.10;;;16.70;99.90;;;;;;5030930;28;20487;-78
2022/04/23 11:28:13;;;;;;;1.03;0.53;;;16.70;99.90;;;;;;5033818;28;20488;-78
2022/04/23 11:30:41;;;;;;;0.60;0.20;;;16.70;99.90;;;;;;5025920;28;20554;-78
2022/04/23 11:33:11;;;;;;;0.73;0.43;;;16.70;99.90;;;;;;5031682;28;20467;-78
2022/04/23 11:35:41;;;;;;;1.53;0.43;;;16.70;99.90;;;;;;5033538;28;20436;-78
2022/04/23 11:38:20;;;;;;;0.60;0.10;;;16.90;99.90;;;;;;5038219;28;21021;-78
2022/04/23 11:40:49;;;;;;;2.20;2.10;;;16.90;99.90;;;;;;5050255;28;20439;-79
2022/04/23 11:43:31;;;;;;;0.70;0.30;;;17.00;99.90;;;;;;5046231;28;20483;-77
2022/04/23 11:46:04;;;;;;;0.60;0.10;;;17.10;99.90;;;;;;5048066;28;20477;-78
2022/04/23 11:48:40;;;;;;;0.60;0.20;;;;;;;;;;5046440;28;20515;-80
2022/04/23 11:51:12;;;;;;;0.80;0.27;;;17.20;99.90;;;;;;5045246;28;20880;-79
2022/04/23 11:53:56;;;;;;;0.60;0.10;;;17.20;99.90;;;;;;5037949;28;20508;-79
2022/04/23 11:56:25;;;;;;;0.70;0.20;;;17.10;99.90;;;;;;5035341;28;20461;-79
2022/04/23 11:58:56;;;;;;;0.60;0.20;;;17.10;99.90;;;;;;5053775;28;20961;-78
2022/04/23 12:01:25;;;;;;;1.67;0.60;;;17.20;99.90;;;;;;5054371;28;20537;-79
2022/04/23 12:03:55;;;;;;;1.90;1.80;;;17.20;99.90;;;;;;5056846;28;20476;-78
2022/04/23 12:06:25;;;;;;;1.63;1.53;;;17.20;99.90;;;;;;5040198;28;20511;-78
2022/04/23 12:09:05;;;;;;;0.60;0.10;;;17.20;99.90;;;;;;5038637;28;20741;-79
2022/04/23 12:11:33;;;;;;;3.70;1.90;;;;;;;;;;5037996;28;20470;-79
2022/04/23 12:14:02;;;;;;;1.27;1.20;;;17.00;99.90;;;;;;5040376;28;20453;-78
2022/04/23 12:16:36;;;;;;;0.60;0.10;;;17.00;99.90;;;;;;5046656;28;20469;-79
2022/04/23 12:19:07;;;;;;;3.90;2.00;;;17.00;99.90;;;;;;5040826;28;20454;-78
2022/04/23 12:21:38;;;;;;;0.80;0.50;;;16.80;99.90;;;;;;5035581;28;20477;-78
2022/04/23 12:24:09;;;;;;;0.60;0.10;;;16.70;99.90;;;;;;5037576;28;20525;-80
2022/04/23 12:26:38;;;;;;;0.60;0.10;;;16.50;99.90;;;;;;5042763;28;20533;-80
2022/04/23 12:43:23;;;;;;;1.43;0.93;;;16.10;99.90;;;;;;5041962;28;20539;-80
2022/04/23 12:45:52;;;;;;;0.60;0.10;;;16.20;99.90;;;;;;5040594;28;20478;-81
2022/04/23 12:48:20;;;;;;;2.87;2.77;;;16.20;99.90;;;;;;5042843;28;20947;-82
2022/04/23 12:50:50;;;;;;;0.80;0.50;;;16.20;99.90;;;;;;5040856;28;20532;-81
2022/04/23 12:53:36;;;;;;;0.87;0.67;;;16.20;99.90;;;;;;5040145;28;20465;-83
2022/04/23 12:56:08;;;;;;;1.27;0.90;;;16.20;99.90;;;;;;5042434;28;20475;-82
2022/04/23 12:58:35;;;;;;;0.70;0.47;;;16.00;99.90;;;;;;5032313;28;20476;-82
2022/04/23 13:01:04;;;;;;;0.70;0.20;;;16.10;99.90;;;;;;5040869;28;20452;-82
2022/04/23 13:03:35;;;;;;;0.70;0.30;;;15.40;99.90;;;;;;5044651;28;20429;-80
2022/04/23 13:08:54;;;;;;;1.27;1.03;;;;;;;;;;5054731;28;20488;-80
2022/04/23 13:08:54;;;;;;;0.60;0.10;;;16.10;99.90;;;;;;5036737;28;20509;-80
2022/04/23 13:11:27;;;;;;;0.97;0.60;;;16.20;99.90;;;;;;5043267;28;20473;-80
2022/04/23 13:13:57;;;;;;;1.50;1.40;;;16.20;99.90;;;;;;5055936;28;20492;-80
2022/04/23 13:16:26;;;;;;;0.60;0.10;;;16.20;99.90;;;;;;5054880;28;20577;-80
2022/04/23 13:18:58;;;;;;;1.90;1.30;;;;;;;;;;5056703;28;20460;-81
2022/04/23 13:21:27;;;;;;;0.70;0.53;;;16.40;99.90;;;;;;5044788;28;20465;-82
2022/04/23 13:23:57;;;;;;;0.80;0.40;;;;;;;;;;5048368;28;20434;-84
2022/04/23 13:26:27;;;;;;;0.60;0.10;;;16.60;99.90;;;;;;5051169;28;20569;-82
2022/04/23 13:28:56;;;;;;;0.60;0.10;;;16.70;99.90;;;;;;5049664;28;20536;-82
2022/04/23 13:31:24;;;;;;;0.60;0.10;;;16.90;99.90;;;;;;5041875;28;21029;-82
2022/04/23 13:33:52;;;;;;;1.17;0.50;;;16.90;99.90;;;;;;5040612;28;20461;-81
2022/04/23 13:36:21;;;;;;;0.60;0.10;;;16.90;99.90;;;;;;5040213;28;20891;-80
2022/04/23 13:38:51;;;;;;;0.87;0.70;;;;;;;;;;5041010;28;20477;-80
2022/04/23 13:41:20;;;;;;;0.60;0.20;;;16.70;99.90;;;;;;5054664;28;20463;-80
2022/04/23 13:43:49;;;;;;;0.60;0.10;;;16.70;99.90;;;;;;5057255;28;20444;-78
2022/04/23 13:46:17;;;;;;;0.60;0.10;;;16.70;99.90;;;;;;5053366;28;20473;-81
2022/04/23 13:48:45;;;;;;;0.60;0.10;;;16.80;99.90;;;;;;5055552;28;20463;-79
2022/04/23 13:51:14;;;;;;;0.60;0.20;;;16.80;99.90;;;;;;5054488;28;20454;-80
2022/04/23 13:53:42;;;;;;;0.80;0.70;;;16.90;99.90;;;;;;5044250;28;21005;-79
2022/04/23 13:56:09;;;;;;;1.27;1.13;;;16.80;99.90;;;;;;5040051;28;20449;-81